createdAt,value
2022-08-03T00:00:11.631Z,100.00
2022-08-03T00:05:13.150Z,100.00
2022-08-03T00:10:14.705Z,100.00
2022-08-03T00:15:17.122Z,100.00
2022-08-03T00:20:18.858Z,100.00
2022-08-03T00:25:20.394Z,100.00
2022-08-03T00:30:21.908Z,100.00
2022-08-03T00:35:50.351Z,100.00
2022-08-03T00:40:52.012Z,100.00
2022-08-03T00:45:54.720Z,100.00
2022-08-03T00:50:56.386Z,100.00
2022-08-03T00:55:58.476Z,100.00
2022-08-03T01:01:00.157Z,100.00
2022-08-03T01:06:18.056Z,100.00
2022-08-03T01:11:30.723Z,100.00
2022-08-03T01:16:40.577Z,100.00
2022-08-03T01:22:00.644Z,100.00
2022-08-03T01:27:31.200Z,100.00
2022-08-03T01:32:53.531Z,100.00
2022-08-03T01:38:05.720Z,100.00
2022-08-03T01:43:11.102Z,100.00
2022-08-03T01:48:17.312Z,100.00
2022-08-03T01:53:20.517Z,100.00
2022-08-03T01:58:24.927Z,100.00
2022-08-03T02:03:28.703Z,100.00
2022-08-03T02:08:32.370Z,100.00
2022-08-03T02:13:35.189Z,100.00
2022-08-03T02:18:40.091Z,100.00
2022-08-03T02:23:41.941Z,100.00
2022-08-03T02:28:49.533Z,100.00
2022-08-03T02:33:58.967Z,100.00
2022-08-03T02:39:01.634Z,100.00
2022-08-03T02:44:09.549Z,100.00
2022-08-03T02:49:49.501Z,100.00
2022-08-03T02:54:37.493Z,100.00
2022-08-03T02:59:41.002Z,100.00
2022-08-03T03:05:50.629Z,100.00
2022-08-03T03:10:07.189Z,100.00
2022-08-03T03:15:09.090Z,100.00
2022-08-03T03:20:12.010Z,100.00
2022-08-03T03:25:13.607Z,100.00
2022-08-03T03:30:15.224Z,100.00
2022-08-03T03:35:17.061Z,100.00
2022-08-03T03:40:19.499Z,100.00
2022-08-03T03:45:21.869Z,100.00
2022-08-03T03:50:24.469Z,100.00
2022-08-03T03:55:26.010Z,100.00
2022-08-03T04:00:27.621Z,100.00
2022-08-03T04:05:47.971Z,100.00
2022-08-03T04:10:59.248Z,100.00
2022-08-03T04:16:02.140Z,100.00
2022-08-03T04:21:05.894Z,100.00
2022-08-03T04:26:11.993Z,100.00
2022-08-03T04:31:16.194Z,100.00
2022-08-03T04:36:23.703Z,100.00
2022-08-03T04:41:26.701Z,100.00
2022-08-03T04:46:33.011Z,100.00
2022-08-03T04:51:35.129Z,100.00
2022-08-03T04:56:39.485Z,100.00
2022-08-03T05:01:43.852Z,100.00
2022-08-03T05:06:48.010Z,100.00
2022-08-03T05:11:56.944Z,100.00
2022-08-03T05:16:58.466Z,100.00
2022-08-03T05:22:00.058Z,100.00
2022-08-03T05:27:01.652Z,100.00
2022-08-03T05:32:08.064Z,100.00
2022-08-03T05:37:17.792Z,100.00
2022-08-03T05:42:19.331Z,100.00
2022-08-03T05:47:20.851Z,100.00
2022-08-03T05:52:22.456Z,100.00
2022-08-03T05:57:25.580Z,100.00
2022-08-03T06:02:27.620Z,100.00
2022-08-03T06:07:29.482Z,100.00
2022-08-03T06:12:31.354Z,100.00
2022-08-03T06:17:37.746Z,100.00
2022-08-03T06:22:51.065Z,100.00
2022-08-03T06:27:52.997Z,100.00
2022-08-03T06:32:54.914Z,100.00
2022-08-03T06:37:57.027Z,100.00
2022-08-03T06:42:59.812Z,100.00
2022-08-03T06:48:06.726Z,100.00
2022-08-03T06:53:09.175Z,100.00
2022-08-03T06:58:19.734Z,100.00
2022-08-03T07:03:21.832Z,100.00
2022-08-03T07:08:33.388Z,100.00
2022-08-03T07:13:35.933Z,100.00
2022-08-03T07:18:41.037Z,100.00
2022-08-03T07:23:42.576Z,100.00
2022-08-03T07:28:44.069Z,100.00
2022-08-03T07:33:46.141Z,100.00
2022-08-03T07:38:47.699Z,100.00
2022-08-03T07:43:49.241Z,100.00
2022-08-03T07:48:50.827Z,100.00
2022-08-03T07:53:53.001Z,100.00
2022-08-03T07:58:55.769Z,100.00
2022-08-03T08:03:57.281Z,100.00
2022-08-03T08:09:01.762Z,100.00
2022-08-03T08:14:03.997Z,100.00
2022-08-03T08:19:05.947Z,100.00
2022-08-03T08:24:15.275Z,100.00
2022-08-03T08:29:23.160Z,100.00
2022-08-03T08:34:24.923Z,100.00
2022-08-03T08:39:26.433Z,100.00
2022-08-03T08:44:29.974Z,100.00
2022-08-03T08:49:33.050Z,100.00
2022-08-03T08:54:38.438Z,99.91
2022-08-03T08:59:47.932Z,99.37
2022-08-03T09:04:51.662Z,99.84
2022-08-03T09:10:10.638Z,98.86
2022-08-03T09:15:25.663Z,97.27
2022-08-03T09:20:30.651Z,96.20
2022-08-03T09:25:39.492Z,95.93
2022-08-03T09:30:43.448Z,95.80
2022-08-03T09:35:54.038Z,95.13
2022-08-03T09:41:00.459Z,94.26
2022-08-03T09:46:03.252Z,93.58
2022-08-03T09:51:13.908Z,92.95
2022-08-03T09:56:44.127Z,92.38
2022-08-03T10:01:45.711Z,90.46
2022-08-03T10:07:05.813Z,89.40
2022-08-03T10:12:12.326Z,87.96
2022-08-03T10:17:14.205Z,87.76
2022-08-03T10:22:19.310Z,68.97
2022-08-03T10:27:23.123Z,62.29
2022-08-03T10:32:49.746Z,56.57
2022-08-03T10:38:17.495Z,51.69
2022-08-03T10:43:22.971Z,48.38
2022-08-03T10:48:26.092Z,47.12
2022-08-03T10:53:38.418Z,46.75
2022-08-03T10:58:53.139Z,50.50
2022-08-03T11:03:58.811Z,57.82
2022-08-03T11:09:16.751Z,62.63
2022-08-03T11:14:21.854Z,65.33
2022-08-03T11:19:27.659Z,68.43
2022-08-03T11:24:42.588Z,70.60
2022-08-03T11:30:08.724Z,71.76
2022-08-03T11:35:14.468Z,73.53
2022-08-03T11:40:33.102Z,74.53
2022-08-03T11:45:35.316Z,74.26
2022-08-03T11:50:38.024Z,75.14
2022-08-03T11:55:42.016Z,76.31
2022-08-03T12:00:43.660Z,76.72
2022-08-03T12:05:53.893Z,77.22
2022-08-03T12:10:58.185Z,76.98
2022-08-03T12:15:59.765Z,76.26
2022-08-03T12:21:10.234Z,75.44
2022-08-03T12:26:17.974Z,75.17
2022-08-03T12:31:19.722Z,74.70
2022-08-03T12:36:21.267Z,74.50
2022-08-03T12:41:35.391Z,74.54
2022-08-03T12:46:46.942Z,74.07
2022-08-03T12:51:52.026Z,73.94
2022-08-03T12:57:15.562Z,73.76
2022-08-03T13:02:23.644Z,73.17
2022-08-03T13:07:25.626Z,73.23
2022-08-03T13:12:29.877Z,72.40
2022-08-03T13:17:31.426Z,69.19
2022-08-03T13:22:33.565Z,66.97
2022-08-03T13:28:03.922Z,66.16
2022-08-03T13:32:58.610Z,65.35
2022-08-03T13:38:00.413Z,63.95
2022-08-03T13:43:01.956Z,63.58
2022-08-03T13:48:03.644Z,63.28
2022-08-03T13:53:05.158Z,62.13
2022-08-03T13:58:09.549Z,62.41
2022-08-03T14:03:15.014Z,63.35
2022-08-03T14:08:17.106Z,62.91
2022-08-03T14:13:18.623Z,62.79
2022-08-03T14:18:29.061Z,62.39
2022-08-03T14:23:37.600Z,60.56
2022-08-03T14:28:39.382Z,59.21
2022-08-03T14:33:40.964Z,59.25
2022-08-03T14:38:42.479Z,58.02
2022-08-03T14:44:00.579Z,57.04
2022-08-03T14:50:30.373Z,56.87
2022-08-03T14:54:26.818Z,58.11
2022-08-03T14:59:28.368Z,59.90
2022-08-03T15:04:49.917Z,59.53
2022-08-03T15:09:51.465Z,59.97
2022-08-03T15:14:53.031Z,61.16
2022-08-03T15:20:01.680Z,61.87
2022-08-03T15:26:03.694Z,61.82
2022-08-03T15:30:27.758Z,62.15
2022-08-03T15:35:29.518Z,62.22
2022-08-03T15:40:31.025Z,61.51
2022-08-03T15:45:35.271Z,61.67
2022-08-03T15:50:37.765Z,60.85
2022-08-03T15:55:42.028Z,60.58
2022-08-03T16:00:43.777Z,60.40
2022-08-03T16:05:45.283Z,60.57
2022-08-03T16:10:47.888Z,60.99
2022-08-03T16:15:50.182Z,59.96
2022-08-03T16:20:51.706Z,59.92
2022-08-03T16:25:53.565Z,60.15
2022-08-03T16:30:55.101Z,59.40
2022-08-03T16:35:57.230Z,60.35
2022-08-03T16:40:58.739Z,60.92
2022-08-03T16:46:03.538Z,60.68
2022-08-03T16:51:05.122Z,58.87
2022-08-03T16:56:10.110Z,59.16
2022-08-03T17:01:22.021Z,59.05
2022-08-03T17:06:26.987Z,59.47
2022-08-03T17:11:38.001Z,59.30
2022-08-03T17:16:40.398Z,58.89
2022-08-03T17:22:01.767Z,59.63
2022-08-03T17:27:18.549Z,60.66
2022-08-03T17:32:33.265Z,60.76
2022-08-03T17:37:57.744Z,60.98
2022-08-03T17:42:58.852Z,60.75
2022-08-03T17:48:00.640Z,61.26
2022-08-03T17:53:15.410Z,61.79
2022-08-03T17:58:54.973Z,61.72
2022-08-03T18:04:02.686Z,61.57
2022-08-03T18:10:03.352Z,62.22
2022-08-03T18:14:57.144Z,62.23
2022-08-03T18:20:02.611Z,63.07
2022-08-03T18:25:07.828Z,64.55
2022-08-03T18:30:12.213Z,64.65
2022-08-03T18:35:15.080Z,66.23
2022-08-03T18:40:20.973Z,67.02
2022-08-03T18:45:57.141Z,67.21
2022-08-03T18:51:12.277Z,67.61
2022-08-03T18:56:43.130Z,67.89
2022-08-03T19:01:58.199Z,68.62
2022-08-03T19:07:09.196Z,68.77
2022-08-03T19:12:37.535Z,69.06
2022-08-03T19:17:50.150Z,69.70
2022-08-03T19:22:56.647Z,70.00
2022-08-03T19:28:00.546Z,70.81
2022-08-03T19:33:10.306Z,71.34
2022-08-03T19:38:12.119Z,71.98
2022-08-03T19:43:21.857Z,72.58
2022-08-03T19:48:29.386Z,73.85
2022-08-03T19:53:36.560Z,76.10
2022-08-03T19:58:45.342Z,78.63
2022-08-03T20:03:55.063Z,81.11
2022-08-03T20:08:58.701Z,82.28
2022-08-03T20:14:01.659Z,83.26
2022-08-03T20:19:03.183Z,84.11
2022-08-03T20:24:32.660Z,84.74
2022-08-03T20:30:06.429Z,85.58
2022-08-03T20:35:09.956Z,85.95
2022-08-03T20:40:13.882Z,86.77
2022-08-03T20:46:01.009Z,87.60
2022-08-03T20:50:40.712Z,88.70
2022-08-03T20:55:48.005Z,89.79
2022-08-03T21:01:04.346Z,91.51
2022-08-03T21:06:07.707Z,93.25
2022-08-03T21:11:18.004Z,93.94
2022-08-03T21:16:21.456Z,94.83
2022-08-03T21:21:24.009Z,95.84
2022-08-03T21:26:27.038Z,96.42
2022-08-03T21:31:28.712Z,97.15
2022-08-03T21:36:32.970Z,98.25
2022-08-03T21:41:36.005Z,99.05
2022-08-03T21:46:40.452Z,99.21
2022-08-03T21:51:42.316Z,99.87
2022-08-03T21:56:48.284Z,100.00
2022-08-03T22:01:55.389Z,100.00
2022-08-03T22:07:00.980Z,100.00
2022-08-03T22:12:03.016Z,100.00
2022-08-03T22:17:07.175Z,100.00
2022-08-03T22:22:13.746Z,100.00
2022-08-03T22:27:32.193Z,100.00
2022-08-03T22:32:33.779Z,100.00
2022-08-03T22:37:36.087Z,100.00
2022-08-03T22:42:39.284Z,100.00
2022-08-03T22:47:41.657Z,100.00
2022-08-03T22:52:44.326Z,100.00
2022-08-03T22:57:45.958Z,100.00
2022-08-03T23:03:00.366Z,100.00
2022-08-03T23:08:03.886Z,100.00
2022-08-03T23:13:06.763Z,100.00
2022-08-03T23:18:09.451Z,100.00
2022-08-03T23:23:11.293Z,100.00
2022-08-03T23:28:18.155Z,100.00
2022-08-03T23:33:21.569Z,100.00
2022-08-03T23:38:24.921Z,100.00
2022-08-03T23:43:51.381Z,100.00
2022-08-03T23:48:50.758Z,100.00
2022-08-03T23:54:01.933Z,100.00
2022-08-03T23:59:12.681Z,100.00
